createdAt,value
2022-09-30T00:04:35.180Z,8.07
2022-09-30T00:09:36.770Z,8.03
2022-09-30T00:14:38.333Z,8.02
2022-09-30T00:19:39.946Z,8.01
2022-09-30T00:24:41.650Z,7.95
2022-09-30T00:29:43.224Z,7.88
2022-09-30T00:34:44.888Z,7.86
2022-09-30T00:39:47.073Z,7.93
2022-09-30T00:44:53.359Z,7.99
2022-09-30T00:50:06.509Z,8.02
2022-09-30T00:55:13.791Z,8.04
2022-09-30T01:00:15.478Z,8.04
2022-09-30T01:05:17.311Z,8.04
2022-09-30T01:10:18.842Z,7.96
2022-09-30T01:15:28.507Z,7.86
2022-09-30T01:21:05.537Z,7.50
2022-09-30T01:26:52.063Z,7.24
2022-09-30T01:32:07.936Z,7.01
2022-09-30T01:37:36.907Z,7.04
2022-09-30T01:43:11.709Z,7.07
2022-09-30T01:48:26.320Z,7.06
2022-09-30T01:53:36.693Z,7.12
2022-09-30T01:58:53.171Z,7.22
2022-09-30T02:04:00.378Z,7.29
2022-09-30T02:09:26.377Z,7.37
2022-09-30T02:14:44.130Z,7.47
2022-09-30T02:19:50.935Z,7.40
2022-09-30T02:24:59.166Z,7.22
2022-09-30T02:30:04.116Z,7.20
2022-09-30T02:35:12.082Z,7.35
2022-09-30T02:40:21.064Z,7.43
2022-09-30T02:45:24.279Z,7.41
2022-09-30T02:50:29.034Z,7.41
2022-09-30T02:56:01.644Z,7.40
2022-09-30T03:01:03.597Z,7.41
2022-09-30T03:06:05.571Z,7.50
2022-09-30T03:11:07.878Z,7.54
2022-09-30T03:16:33.914Z,7.70
2022-09-30T03:22:06.429Z,7.87
2022-09-30T03:27:45.999Z,7.95
2022-09-30T03:33:06.134Z,7.88
2022-09-30T03:38:10.872Z,7.75
2022-09-30T03:43:26.049Z,7.74
2022-09-30T03:48:30.844Z,7.79
2022-09-30T03:53:38.379Z,7.90
2022-09-30T03:58:44.545Z,7.91
2022-09-30T04:03:46.762Z,7.80
2022-09-30T04:08:48.886Z,7.67
2022-09-30T04:13:50.482Z,7.60
2022-09-30T04:18:52.027Z,7.61
2022-09-30T04:23:53.587Z,7.73
2022-09-30T04:28:58.204Z,7.78
2022-09-30T04:33:59.704Z,7.71
2022-09-30T04:39:01.357Z,7.70
2022-09-30T04:44:06.369Z,7.69
2022-09-30T04:49:09.473Z,7.67
2022-09-30T04:54:11.155Z,7.75
2022-09-30T04:59:12.748Z,7.90
2022-09-30T05:04:16.147Z,7.94
2022-09-30T05:09:17.698Z,7.65
2022-09-30T05:14:19.321Z,7.63
2022-09-30T05:19:21.187Z,7.51
2022-09-30T05:24:22.768Z,7.47
2022-09-30T05:29:24.319Z,7.45
2022-09-30T05:34:25.982Z,7.44
2022-09-30T05:39:27.482Z,7.40
2022-09-30T05:44:29.031Z,7.34
2022-09-30T05:49:30.543Z,7.23
2022-09-30T05:54:32.080Z,7.16
2022-09-30T05:59:33.995Z,7.22
2022-09-30T06:04:35.616Z,7.39
2022-09-30T06:09:37.566Z,7.58
2022-09-30T06:14:39.203Z,7.83
2022-09-30T06:19:40.709Z,8.08
2022-09-30T06:24:42.587Z,8.37
2022-09-30T06:29:44.121Z,8.61
2022-09-30T06:34:45.873Z,8.84
2022-09-30T06:39:47.448Z,8.89
2022-09-30T06:44:53.049Z,9.02
2022-09-30T06:49:58.826Z,9.28
2022-09-30T06:55:00.445Z,9.58
2022-09-30T07:00:02.413Z,9.73
2022-09-30T07:05:04.400Z,9.87
2022-09-30T07:10:06.443Z,10.19
2022-09-30T07:15:13.563Z,10.52
2022-09-30T07:20:15.447Z,10.80
2022-09-30T07:25:17.440Z,11.14
2022-09-30T07:30:26.631Z,11.29
2022-09-30T07:35:28.870Z,11.10
2022-09-30T07:40:31.385Z,11.27
2022-09-30T07:45:33.129Z,11.68
2022-09-30T07:50:34.760Z,11.71
2022-09-30T07:55:36.309Z,11.61
2022-09-30T08:00:42.730Z,11.87
2022-09-30T08:05:45.300Z,12.19
2022-09-30T08:10:46.916Z,12.24
2022-09-30T08:15:48.746Z,12.25
2022-09-30T08:20:50.416Z,12.58
2022-09-30T08:25:51.990Z,12.56
2022-09-30T08:30:53.544Z,12.78
2022-09-30T08:35:55.212Z,13.18
2022-09-30T08:41:30.902Z,13.44
2022-09-30T08:46:45.181Z,13.44
2022-09-30T08:51:49.728Z,13.50
2022-09-30T08:56:51.410Z,13.67
2022-09-30T09:01:59.152Z,13.89
2022-09-30T09:07:39.910Z,14.52
2022-09-30T09:13:06.275Z,14.91
2022-09-30T09:18:24.294Z,15.58
2022-09-30T09:23:31.239Z,15.75
2022-09-30T09:28:53.196Z,15.17
2022-09-30T09:34:02.122Z,15.11
2022-09-30T09:39:15.788Z,15.22
2022-09-30T09:44:39.749Z,15.41
2022-09-30T09:49:46.367Z,16.01
2022-09-30T09:54:52.907Z,16.52
2022-09-30T10:05:26.086Z,16.70
2022-09-30T10:10:30.188Z,16.25
2022-09-30T10:15:31.936Z,15.77
2022-09-30T10:20:36.646Z,15.96
2022-09-30T10:25:38.377Z,15.91
2022-09-30T10:30:51.503Z,15.57
2022-09-30T10:36:02.404Z,15.44
2022-09-30T10:41:05.652Z,15.69
2022-09-30T10:46:26.692Z,15.55
2022-09-30T10:51:34.896Z,15.81
2022-09-30T10:56:43.019Z,15.77
2022-09-30T11:01:52.625Z,15.76
2022-09-30T11:07:09.999Z,16.05
2022-09-30T11:12:14.860Z,16.10
2022-09-30T11:17:41.664Z,15.80
2022-09-30T11:22:56.713Z,16.10
2022-09-30T11:28:02.393Z,16.40
2022-09-30T11:33:35.718Z,16.68
2022-09-30T11:38:52.955Z,16.23
2022-09-30T11:44:08.260Z,16.02
2022-09-30T11:49:35.217Z,16.22
2022-09-30T11:54:36.673Z,16.31
2022-09-30T11:59:59.622Z,15.78
2022-09-30T12:05:11.976Z,15.41
2022-09-30T12:10:25.420Z,15.51
2022-09-30T12:15:28.318Z,15.81
2022-09-30T12:20:56.511Z,15.94
2022-09-30T12:26:00.271Z,15.78
2022-09-30T12:31:14.935Z,15.82
2022-09-30T12:36:45.651Z,15.85
2022-09-30T12:42:20.769Z,15.85
2022-09-30T12:47:22.260Z,15.89
2022-09-30T12:52:24.661Z,15.53
2022-09-30T12:57:30.811Z,15.52
2022-09-30T13:02:39.619Z,15.78
2022-09-30T13:08:07.003Z,16.30
2022-09-30T13:13:23.644Z,16.59
2022-09-30T13:18:27.978Z,16.88
2022-09-30T13:23:46.904Z,17.12
2022-09-30T13:28:49.750Z,16.99
2022-09-30T13:34:03.481Z,16.68
2022-09-30T13:39:41.184Z,16.86
2022-09-30T13:45:16.232Z,16.79
2022-09-30T13:50:31.211Z,16.41
2022-09-30T13:55:42.182Z,16.61
2022-09-30T14:01:19.296Z,17.02
2022-09-30T14:07:07.485Z,17.06
2022-09-30T14:12:37.194Z,17.33
2022-09-30T14:18:07.063Z,17.23
2022-09-30T14:23:20.271Z,17.21
2022-09-30T14:28:33.645Z,17.16
2022-09-30T14:33:36.459Z,17.41
2022-09-30T14:38:38.983Z,17.42
2022-09-30T14:43:45.015Z,17.43
2022-09-30T14:48:48.481Z,17.32
2022-09-30T14:54:02.457Z,16.92
2022-09-30T14:59:22.367Z,16.66
2022-09-30T15:04:29.237Z,16.46
2022-09-30T15:09:37.225Z,16.33
2022-09-30T15:14:48.038Z,16.39
2022-09-30T15:19:50.496Z,16.54
2022-09-30T15:24:53.725Z,16.59
2022-09-30T15:29:55.863Z,16.67
2022-09-30T15:34:58.732Z,16.83
2022-09-30T15:40:20.420Z,16.90
2022-09-30T15:45:33.488Z,16.66
2022-09-30T15:50:42.220Z,16.31
2022-09-30T15:55:45.778Z,16.00
2022-09-30T16:00:47.980Z,15.69
2022-09-30T16:05:53.762Z,15.33
2022-09-30T16:10:58.362Z,15.00
2022-09-30T16:16:01.966Z,14.73
2022-09-30T16:21:05.622Z,14.48
2022-09-30T16:26:12.872Z,14.24
2022-09-30T16:31:16.252Z,14.04
2022-09-30T16:36:17.889Z,13.77
2022-09-30T16:41:19.571Z,13.53
2022-09-30T16:46:21.244Z,13.33
2022-09-30T16:51:22.798Z,13.15
2022-09-30T16:56:26.502Z,12.94
2022-09-30T17:01:28.597Z,12.67
2022-09-30T17:06:32.165Z,12.35
2022-09-30T17:11:35.494Z,12.05
2022-09-30T17:16:37.571Z,11.79
2022-09-30T17:21:39.329Z,11.50
2022-09-30T17:26:40.862Z,11.24
2022-09-30T17:31:44.725Z,10.97
2022-09-30T17:36:46.307Z,10.70
2022-09-30T17:42:08.986Z,10.45
2022-09-30T17:47:10.626Z,10.25
2022-09-30T17:52:14.516Z,10.11
2022-09-30T17:57:16.070Z,9.92
2022-09-30T18:02:18.231Z,9.78
2022-09-30T18:07:21.000Z,9.59
2022-09-30T18:12:22.544Z,9.43
2022-09-30T18:17:27.255Z,9.22
2022-09-30T18:22:29.523Z,9.06
2022-09-30T18:27:33.853Z,8.87
2022-09-30T18:32:35.574Z,8.72
2022-09-30T18:37:37.077Z,8.58
2022-09-30T18:42:38.623Z,8.45
2022-09-30T18:47:42.227Z,8.37
2022-09-30T18:52:43.770Z,8.27
2022-09-30T18:57:48.300Z,8.16
2022-09-30T19:02:51.977Z,8.06
2022-09-30T19:07:54.407Z,7.93
2022-09-30T19:12:55.980Z,7.81
2022-09-30T19:17:58.617Z,7.67
2022-09-30T19:23:00.188Z,7.58
2022-09-30T19:28:02.499Z,7.48
2022-09-30T19:33:04.195Z,7.44
2022-09-30T19:38:06.035Z,7.38
2022-09-30T19:43:08.067Z,7.32
2022-09-30T19:48:09.600Z,7.29
2022-09-30T19:53:16.299Z,7.19
2022-09-30T19:58:23.075Z,7.09
2022-09-30T20:03:25.501Z,7.02
2022-09-30T20:08:27.072Z,6.92
2022-09-30T20:13:29.299Z,6.87
2022-09-30T20:18:31.809Z,6.81
2022-09-30T20:23:36.321Z,6.70
2022-09-30T20:28:38.204Z,6.65
2022-09-30T20:33:40.689Z,6.58
2022-09-30T20:38:42.177Z,6.55
2022-09-30T20:43:49.171Z,6.50
2022-09-30T20:48:50.823Z,6.45
2022-09-30T20:53:53.962Z,6.41
2022-09-30T20:58:55.690Z,6.32
2022-09-30T21:03:57.237Z,6.26
2022-09-30T21:09:02.681Z,6.23
2022-09-30T21:14:04.301Z,6.23
2022-09-30T21:19:05.883Z,6.19
2022-09-30T21:24:07.542Z,6.15
2022-09-30T21:29:09.075Z,6.13
2022-09-30T21:34:13.946Z,6.11
2022-09-30T21:39:15.645Z,6.08
2022-09-30T21:44:17.244Z,6.01
2022-09-30T21:49:23.000Z,5.94
2022-09-30T21:54:24.684Z,5.91
2022-09-30T21:59:26.289Z,5.83
2022-09-30T22:04:27.792Z,5.81
2022-09-30T22:09:29.321Z,5.76
2022-09-30T22:14:30.839Z,5.73
2022-09-30T22:19:32.331Z,5.69
2022-09-30T22:24:35.307Z,5.65
2022-09-30T22:29:36.920Z,5.63
2022-09-30T22:34:56.944Z,5.63
2022-09-30T22:40:00.904Z,5.57
2022-09-30T22:45:03.668Z,5.53
2022-09-30T22:50:05.521Z,5.47
2022-09-30T22:55:07.395Z,5.43
2022-09-30T23:00:09.689Z,5.42
2022-09-30T23:05:11.199Z,5.42
2022-09-30T23:10:12.762Z,5.39
2022-09-30T23:15:14.288Z,5.33
2022-09-30T23:20:15.882Z,5.33
2022-09-30T23:25:17.407Z,5.32
2022-09-30T23:30:18.983Z,5.32
2022-09-30T23:35:20.513Z,5.34
2022-09-30T23:40:22.009Z,5.34
2022-09-30T23:45:23.587Z,5.36
2022-09-30T23:50:25.356Z,5.35
2022-09-30T23:55:28.027Z,5.33
